createdAt,value
2023-02-03T00:01:03.946Z,55.16
2023-02-03T00:03:30.624Z,55.11
2023-02-03T00:05:57.490Z,55.54
2023-02-03T00:08:24.179Z,55.36
2023-02-03T00:10:51.269Z,55.25
2023-02-03T00:13:18.095Z,55.39
2023-02-03T00:15:44.934Z,55.45
2023-02-03T00:18:12.059Z,55.27
2023-02-03T00:20:38.770Z,55.31
2023-02-03T00:23:10.073Z,55.42
2023-02-03T00:25:37.379Z,55.43
2023-02-03T00:28:05.437Z,55.14
2023-02-03T00:30:35.744Z,55.36
2023-02-03T00:33:03.605Z,55.06
2023-02-03T00:35:30.518Z,55.18
2023-02-03T00:37:58.348Z,55.50
2023-02-03T00:40:27.083Z,55.16
2023-02-03T00:42:57.112Z,55.75
2023-02-03T00:45:25.440Z,55.57
2023-02-03T00:47:52.320Z,55.80
2023-02-03T00:50:19.090Z,56.15
2023-02-03T00:52:45.860Z,56.03
2023-02-03T00:55:12.575Z,56.36
2023-02-03T00:57:39.313Z,56.36
2023-02-03T01:00:07.403Z,56.08
2023-02-03T01:02:38.741Z,56.06
2023-02-03T01:05:11.828Z,56.17
2023-02-03T01:07:38.962Z,56.49
2023-02-03T01:10:06.671Z,56.71
2023-02-03T01:12:33.477Z,56.22
2023-02-03T01:15:00.259Z,56.34
2023-02-03T01:17:27.160Z,56.26
2023-02-03T01:19:54.178Z,56.02
2023-02-03T01:22:21.133Z,56.43
2023-02-03T01:24:49.601Z,57.27
2023-02-03T01:27:16.371Z,57.14
2023-02-03T01:29:43.074Z,57.07
2023-02-03T01:32:09.824Z,57.55
2023-02-03T01:34:36.662Z,57.06
2023-02-03T01:37:03.459Z,57.23
2023-02-03T01:39:30.227Z,57.76
2023-02-03T01:41:57.302Z,57.76
2023-02-03T01:44:39.908Z,57.82
2023-02-03T01:47:16.717Z,57.95
2023-02-03T01:50:07.273Z,58.09
2023-02-03T01:52:34.575Z,57.43
2023-02-03T01:55:05.809Z,57.48
2023-02-03T01:57:38.286Z,57.06
2023-02-03T02:00:08.023Z,57.31
2023-02-03T02:02:44.473Z,57.58
2023-02-03T02:05:22.600Z,58.03
2023-02-03T02:07:49.875Z,58.02
2023-02-03T02:10:16.916Z,58.43
2023-02-03T02:12:43.958Z,58.83
2023-02-03T02:15:11.088Z,58.79
2023-02-03T02:18:05.596Z,58.53
2023-02-03T02:20:32.270Z,58.70
2023-02-03T02:23:13.927Z,58.76
2023-02-03T02:25:59.009Z,58.56
2023-02-03T02:28:44.463Z,58.78
2023-02-03T02:31:53.723Z,58.37
2023-02-03T02:34:57.428Z,58.74
2023-02-03T02:37:28.105Z,58.61
2023-02-03T02:40:07.629Z,58.49
2023-02-03T02:42:59.770Z,58.22
2023-02-03T02:45:50.979Z,58.28
2023-02-03T02:48:42.030Z,57.93
2023-02-03T02:51:12.365Z,58.01
2023-02-03T02:53:44.410Z,57.95
2023-02-03T02:56:15.522Z,57.78
2023-02-03T02:58:47.312Z,57.52
2023-02-03T03:01:14.480Z,57.17
2023-02-03T03:03:45.053Z,57.54
2023-02-03T03:06:14.724Z,57.74
2023-02-03T03:09:11.965Z,57.59
2023-02-03T03:11:50.272Z,57.76
2023-02-03T03:14:21.657Z,57.77
2023-02-03T03:16:57.346Z,57.95
2023-02-03T03:19:28.499Z,57.98
2023-02-03T03:21:59.828Z,58.01
2023-02-03T03:24:33.810Z,58.20
2023-02-03T03:27:19.266Z,58.00
2023-02-03T03:29:59.534Z,58.00
2023-02-03T03:32:28.245Z,58.24
2023-02-03T03:34:55.970Z,58.07
2023-02-03T03:37:32.638Z,58.48
2023-02-03T03:40:23.968Z,58.47
2023-02-03T03:42:58.116Z,58.43
2023-02-03T03:45:47.094Z,58.06
2023-02-03T03:48:21.711Z,58.81
2023-02-03T03:50:55.605Z,58.57
2023-02-03T03:53:23.958Z,58.99
2023-02-03T03:55:52.950Z,58.44
2023-02-03T03:58:30.484Z,58.67
2023-02-03T04:01:01.320Z,58.68
2023-02-03T04:03:33.986Z,58.46
2023-02-03T04:06:00.836Z,58.74
2023-02-03T04:08:27.673Z,58.98
2023-02-03T04:10:54.491Z,59.13
2023-02-03T04:13:21.236Z,58.89
2023-02-03T04:15:48.054Z,58.71
2023-02-03T04:18:16.485Z,58.44
2023-02-03T04:20:43.527Z,58.56
2023-02-03T04:23:10.306Z,58.75
2023-02-03T04:25:37.108Z,58.56
2023-02-03T04:28:04.305Z,58.72
2023-02-03T04:30:31.235Z,58.39
2023-02-03T04:32:58.104Z,58.73
2023-02-03T04:35:26.093Z,58.60
2023-02-03T04:37:52.878Z,59.05
2023-02-03T04:40:19.719Z,58.82
2023-02-03T04:42:46.518Z,59.12
2023-02-03T04:45:13.370Z,59.09
2023-02-03T04:47:40.301Z,58.92
2023-02-03T04:50:07.783Z,59.38
2023-02-03T04:52:34.614Z,59.05
2023-02-03T04:55:01.429Z,59.12
2023-02-03T04:57:28.200Z,59.17
2023-02-03T04:59:54.952Z,59.34
2023-02-03T05:02:21.766Z,59.13
2023-02-03T05:04:48.532Z,58.98
2023-02-03T05:07:15.248Z,58.85
2023-02-03T05:09:42.064Z,61.20
2023-02-03T05:12:08.814Z,71.60
2023-02-03T05:14:35.518Z,59.74
2023-02-03T05:17:02.338Z,59.93
2023-02-03T05:19:29.058Z,60.60
2023-02-03T05:21:55.796Z,59.38
2023-02-03T05:24:22.548Z,56.74
2023-02-03T05:26:49.255Z,58.49
2023-02-03T05:29:15.969Z,56.21
2023-02-03T05:31:42.768Z,56.48
2023-02-03T05:34:09.570Z,57.45
2023-02-03T05:36:36.331Z,57.98
2023-02-03T05:39:03.654Z,58.48
2023-02-03T05:41:48.804Z,58.65
2023-02-03T05:44:15.647Z,58.73
2023-02-03T05:46:42.458Z,58.93
2023-02-03T05:49:09.211Z,58.56
2023-02-03T05:51:36.101Z,58.39
2023-02-03T05:54:02.958Z,58.43
2023-02-03T05:56:29.714Z,58.28
2023-02-03T05:58:56.472Z,57.96
2023-02-03T06:01:23.552Z,57.85
2023-02-03T06:03:50.645Z,57.39
2023-02-03T06:06:17.963Z,57.26
2023-02-03T06:08:44.734Z,57.51
2023-02-03T06:11:12.981Z,56.85
2023-02-03T06:13:39.747Z,57.06
2023-02-03T06:16:06.711Z,56.77
2023-02-03T06:18:33.462Z,56.69
2023-02-03T06:21:00.460Z,56.81
2023-02-03T06:23:27.237Z,57.31
2023-02-03T06:25:54.118Z,57.12
2023-02-03T06:28:20.982Z,57.55
2023-02-03T06:30:51.272Z,57.91
2023-02-03T06:33:18.107Z,57.81
2023-02-03T06:35:45.113Z,58.10
2023-02-03T06:38:11.999Z,58.21
2023-02-03T06:40:38.846Z,58.47
2023-02-03T06:43:05.666Z,58.14
2023-02-03T06:45:32.433Z,57.87
2023-02-03T06:47:59.208Z,58.17
2023-02-03T06:50:26.210Z,57.88
2023-02-03T06:52:53.230Z,57.75
2023-02-03T06:55:19.990Z,57.70
2023-02-03T06:57:48.027Z,58.25
2023-02-03T07:00:19.041Z,57.55
2023-02-03T07:02:46.837Z,57.53
2023-02-03T07:05:14.004Z,58.10
2023-02-03T07:07:40.818Z,57.77
2023-02-03T07:10:08.423Z,57.90
2023-02-03T07:12:36.652Z,57.40
2023-02-03T07:15:06.797Z,57.44
2023-02-03T07:17:33.581Z,58.17
2023-02-03T07:20:00.339Z,58.26
2023-02-03T07:22:27.294Z,58.39
2023-02-03T07:24:54.033Z,58.21
2023-02-03T07:27:20.872Z,58.07
2023-02-03T07:29:47.630Z,57.72
2023-02-03T07:32:14.482Z,57.94
2023-02-03T07:34:41.394Z,58.23
2023-02-03T07:37:08.267Z,57.71
2023-02-03T07:39:35.023Z,57.33
2023-02-03T07:42:01.838Z,57.49
2023-02-03T07:44:29.609Z,56.99
2023-02-03T07:46:56.485Z,56.58
2023-02-03T07:49:23.345Z,56.46
2023-02-03T07:51:50.035Z,56.49
2023-02-03T07:54:16.817Z,56.09
2023-02-03T07:56:43.635Z,56.23
2023-02-03T07:59:10.569Z,56.53
2023-02-03T08:01:37.423Z,56.39
2023-02-03T08:04:05.649Z,55.76
2023-02-03T08:06:32.614Z,55.42
2023-02-03T08:08:59.457Z,55.54
2023-02-03T08:11:26.224Z,55.68
2023-02-03T08:13:53.060Z,55.81
2023-02-03T08:16:19.806Z,55.54
2023-02-03T08:18:46.599Z,55.70
2023-02-03T08:21:13.365Z,55.47
2023-02-03T08:23:40.190Z,55.41
2023-02-03T08:26:07.091Z,55.21
2023-02-03T08:28:33.916Z,55.10
2023-02-03T08:31:00.737Z,55.77
2023-02-03T08:33:28.773Z,55.71
2023-02-03T08:35:56.834Z,55.56
2023-02-03T08:38:23.663Z,55.08
2023-02-03T08:40:50.457Z,55.08
2023-02-03T08:43:17.296Z,54.84
2023-02-03T08:45:44.186Z,55.02
2023-02-03T08:48:11.159Z,54.37
2023-02-03T08:50:38.089Z,54.28
2023-02-03T08:53:04.855Z,53.65
2023-02-03T08:55:31.584Z,53.94
2023-02-03T08:57:58.424Z,53.82
2023-02-03T09:00:25.713Z,53.86
2023-02-03T09:02:52.669Z,53.81
2023-02-03T09:05:19.515Z,53.83
2023-02-03T09:07:46.341Z,53.49
2023-02-03T09:10:13.207Z,53.33
2023-02-03T09:12:40.064Z,53.03
2023-02-03T09:15:07.171Z,53.00
2023-02-03T09:17:34.018Z,53.07
2023-02-03T09:20:00.935Z,52.44
2023-02-03T09:22:27.685Z,51.96
2023-02-03T09:24:54.632Z,51.87
2023-02-03T09:27:21.342Z,51.55
2023-02-03T09:29:48.049Z,51.70
2023-02-03T09:32:15.746Z,51.82
2023-02-03T09:34:42.908Z,51.72
2023-02-03T09:37:09.811Z,51.46
2023-02-03T09:39:36.529Z,51.16
2023-02-03T09:42:32.447Z,50.82
2023-02-03T09:45:13.144Z,50.91
2023-02-03T09:47:43.518Z,50.25
2023-02-03T09:50:23.730Z,49.82
2023-02-03T09:52:51.890Z,49.43
2023-02-03T09:55:27.551Z,49.20
2023-02-03T09:58:14.031Z,49.07
2023-02-03T10:00:48.166Z,48.82
2023-02-03T10:03:25.992Z,48.76
2023-02-03T10:06:07.087Z,48.51
2023-02-03T10:08:55.378Z,48.32
2023-02-03T10:11:50.232Z,47.86
2023-02-03T10:14:46.136Z,47.53
2023-02-03T10:17:37.832Z,46.93
2023-02-03T10:20:22.335Z,46.48
2023-02-03T10:22:54.131Z,46.15
2023-02-03T10:25:32.334Z,46.23
2023-02-03T10:28:05.254Z,45.80
2023-02-03T10:30:45.484Z,45.56
2023-02-03T10:33:16.540Z,45.41
2023-02-03T10:35:53.941Z,45.14
2023-02-03T10:38:39.993Z,44.96
2023-02-03T10:41:07.392Z,44.79
2023-02-03T10:43:52.820Z,44.64
2023-02-03T10:46:23.859Z,44.09
2023-02-03T10:48:50.726Z,43.88
2023-02-03T10:51:24.590Z,43.51
2023-02-03T10:53:53.622Z,43.32
2023-02-03T10:56:25.989Z,43.08
2023-02-03T10:59:00.555Z,42.61
2023-02-03T11:01:49.352Z,41.82
2023-02-03T11:04:31.723Z,41.64
2023-02-03T11:07:03.855Z,41.22
2023-02-03T11:09:38.231Z,40.73
2023-02-03T11:12:16.318Z,40.30
2023-02-03T11:14:45.992Z,40.07
2023-02-03T11:17:23.521Z,39.81
2023-02-03T11:19:55.532Z,39.60
2023-02-03T11:22:36.892Z,39.43
2023-02-03T11:25:15.842Z,39.08
2023-02-03T11:27:43.306Z,38.33
2023-02-03T11:30:30.628Z,38.50
2023-02-03T11:33:02.155Z,37.59
2023-02-03T11:35:31.869Z,37.37
2023-02-03T11:38:02.280Z,37.31
2023-02-03T11:40:34.232Z,36.88
2023-02-03T11:43:05.812Z,36.41
2023-02-03T11:45:42.158Z,36.65
2023-02-03T11:48:23.759Z,37.10
2023-02-03T11:51:22.450Z,37.01
2023-02-03T11:53:57.485Z,37.03
2023-02-03T11:56:33.266Z,38.13
2023-02-03T11:59:20.892Z,36.81
2023-02-03T12:02:15.680Z,36.74
2023-02-03T12:05:20.567Z,37.59
2023-02-03T12:07:59.318Z,38.81
2023-02-03T12:10:42.065Z,38.38
2023-02-03T12:13:41.289Z,38.67
2023-02-03T12:16:55.726Z,38.96
2023-02-03T12:19:22.462Z,38.91
2023-02-03T12:22:30.419Z,39.17
2023-02-03T12:25:23.449Z,39.35
2023-02-03T12:28:04.176Z,39.72
2023-02-03T12:30:38.612Z,38.38
2023-02-03T12:33:16.415Z,39.09
2023-02-03T12:36:13.188Z,39.89
2023-02-03T12:39:03.585Z,39.11
2023-02-03T12:41:36.623Z,39.68
2023-02-03T12:44:20.210Z,41.13
2023-02-03T12:46:56.393Z,40.45
2023-02-03T12:49:44.927Z,41.54
2023-02-03T12:52:18.469Z,41.74
2023-02-03T12:55:16.341Z,43.60
2023-02-03T12:58:06.470Z,43.58
2023-02-03T13:00:57.329Z,45.02
2023-02-03T13:03:50.348Z,45.20
2023-02-03T13:06:32.496Z,41.99
2023-02-03T13:09:08.599Z,42.84
2023-02-03T13:11:48.694Z,44.22
2023-02-03T13:14:40.223Z,45.72
2023-02-03T13:17:15.626Z,46.59
2023-02-03T13:19:50.446Z,46.48
2023-02-03T13:22:17.973Z,47.16
2023-02-03T13:24:56.484Z,47.98
2023-02-03T13:27:46.942Z,48.33
2023-02-03T13:30:55.195Z,48.99
2023-02-03T13:34:04.040Z,48.75
2023-02-03T13:36:39.700Z,49.58
2023-02-03T13:40:03.678Z,50.45
2023-02-03T13:42:38.309Z,51.14
2023-02-03T13:45:41.645Z,51.36
2023-02-03T13:48:22.521Z,51.50
2023-02-03T13:51:05.371Z,51.47
2023-02-03T13:53:36.872Z,51.17
2023-02-03T13:56:18.227Z,50.78
2023-02-03T13:59:13.973Z,51.46
2023-02-03T14:01:42.703Z,53.03
2023-02-03T14:04:31.710Z,54.24
2023-02-03T14:07:01.551Z,54.54
2023-02-03T14:09:31.544Z,54.00
2023-02-03T14:12:30.261Z,54.06
2023-02-03T14:15:04.947Z,54.57
2023-02-03T14:17:34.481Z,55.03
2023-02-03T14:20:22.615Z,54.52
2023-02-03T14:22:50.023Z,53.73
2023-02-03T14:25:19.045Z,53.96
2023-02-03T14:27:45.912Z,54.18
2023-02-03T14:30:16.862Z,54.23
2023-02-03T14:32:59.477Z,53.73
2023-02-03T14:35:40.287Z,53.60
2023-02-03T14:38:10.898Z,53.89
2023-02-03T14:40:48.128Z,53.74
2023-02-03T14:43:24.326Z,53.98
2023-02-03T14:46:09.842Z,54.00
2023-02-03T14:49:09.142Z,54.22
2023-02-03T14:51:55.874Z,54.91
2023-02-03T14:54:47.677Z,54.90
2023-02-03T14:57:29.403Z,55.10
2023-02-03T15:00:05.771Z,55.24
2023-02-03T15:02:34.408Z,56.39
2023-02-03T15:05:13.338Z,56.75
2023-02-03T15:07:45.510Z,57.10
2023-02-03T15:10:36.625Z,57.22
2023-02-03T15:13:03.390Z,57.42
2023-02-03T15:15:34.168Z,57.24
2023-02-03T15:18:21.333Z,57.15
2023-02-03T15:20:53.881Z,57.27
2023-02-03T15:23:48.146Z,57.71
2023-02-03T15:26:18.537Z,57.68
2023-02-03T15:29:05.011Z,57.92
2023-02-03T15:31:37.335Z,57.58
2023-02-03T15:34:23.216Z,57.70
2023-02-03T15:36:52.607Z,57.88
2023-02-03T15:39:39.586Z,58.06
2023-02-03T15:42:18.932Z,57.67
2023-02-03T15:45:17.778Z,57.72
2023-02-03T15:47:54.927Z,57.56
2023-02-03T15:50:31.335Z,57.51
2023-02-03T15:53:07.738Z,57.51
2023-02-03T15:55:43.591Z,57.42
2023-02-03T15:58:24.970Z,57.40
2023-02-03T16:00:55.981Z,57.01
2023-02-03T16:03:33.509Z,57.15
2023-02-03T16:06:30.683Z,56.16
2023-02-03T16:08:58.832Z,56.19
2023-02-03T16:11:33.549Z,55.96
2023-02-03T16:14:03.771Z,56.02
2023-02-03T16:16:39.593Z,55.99
2023-02-03T16:19:15.763Z,55.51
2023-02-03T16:21:48.295Z,55.72
2023-02-03T16:24:33.986Z,56.83
2023-02-03T16:27:19.556Z,57.23
2023-02-03T16:30:04.959Z,57.59
2023-02-03T16:32:50.182Z,58.05
2023-02-03T16:35:35.623Z,58.27
2023-02-03T16:38:35.403Z,57.95
2023-02-03T16:41:24.551Z,59.28
2023-02-03T16:44:09.912Z,59.51
2023-02-03T16:46:55.608Z,59.54
2023-02-03T16:49:41.042Z,59.93
2023-02-03T16:52:08.644Z,59.82
2023-02-03T16:54:35.410Z,59.59
2023-02-03T16:57:02.184Z,59.89
2023-02-03T16:59:28.888Z,60.15
2023-02-03T17:01:55.628Z,60.26
2023-02-03T17:04:22.384Z,60.34
2023-02-03T17:06:51.242Z,60.46
2023-02-03T17:09:23.475Z,60.43
2023-02-03T17:11:50.819Z,60.43
2023-02-03T17:14:17.523Z,60.05
2023-02-03T17:16:44.322Z,59.85
2023-02-03T17:19:12.188Z,60.12
2023-02-03T17:21:39.402Z,61.93
2023-02-03T17:24:06.623Z,61.95
2023-02-03T17:26:34.430Z,62.41
2023-02-03T17:29:03.455Z,63.47
2023-02-03T17:31:31.160Z,63.89
2023-02-03T17:33:59.039Z,64.30
2023-02-03T17:36:25.830Z,64.63
2023-02-03T17:55:24.552Z,64.84
2023-02-03T17:57:51.537Z,64.95
2023-02-03T18:00:18.574Z,64.94
2023-02-03T18:02:49.425Z,65.00
2023-02-03T18:05:16.308Z,64.94
2023-02-03T18:07:43.288Z,65.04
2023-02-03T18:10:10.608Z,64.76
2023-02-03T18:12:37.325Z,65.13
2023-02-03T18:15:04.186Z,65.31
2023-02-03T18:17:31.005Z,65.10
2023-02-03T18:20:00.411Z,65.08
2023-02-03T18:22:27.222Z,65.06
2023-02-03T18:24:55.451Z,65.16
2023-02-03T18:27:22.382Z,65.16
2023-02-03T18:29:49.079Z,65.09
2023-02-03T18:32:16.359Z,65.12
2023-02-03T18:34:43.354Z,64.93
2023-02-03T18:37:10.095Z,65.24
2023-02-03T18:39:36.862Z,65.18
2023-02-03T18:42:04.600Z,65.23
2023-02-03T18:44:31.824Z,66.77
2023-02-03T18:47:06.953Z,66.73
2023-02-03T18:49:36.214Z,63.80
2023-02-03T18:52:04.237Z,63.05
2023-02-03T18:54:31.302Z,62.41
2023-02-03T18:57:05.728Z,62.06
2023-02-03T18:59:32.474Z,61.85
2023-02-03T19:02:02.087Z,62.55
2023-02-03T19:04:29.033Z,62.39
2023-02-03T19:06:55.968Z,61.84
2023-02-03T19:09:23.803Z,61.76
2023-02-03T19:11:51.356Z,61.14
2023-02-03T19:14:18.222Z,51.88
2023-02-03T19:16:45.272Z,52.58
2023-02-03T19:19:13.962Z,46.95
2023-02-03T19:21:40.797Z,45.28
2023-02-03T19:24:07.674Z,43.88
2023-02-03T19:26:34.752Z,43.49
2023-02-03T19:29:01.500Z,43.01
2023-02-03T19:31:28.422Z,42.81
2023-02-03T19:33:58.790Z,41.75
2023-02-03T19:36:29.436Z,41.58
2023-02-03T19:38:56.997Z,41.54
2023-02-03T19:41:25.725Z,41.29
2023-02-03T19:43:52.593Z,41.50
2023-02-03T19:46:23.034Z,41.23
2023-02-03T19:48:50.360Z,41.33
2023-02-03T19:51:17.436Z,41.28
2023-02-03T19:53:44.244Z,41.47
2023-02-03T19:56:11.037Z,41.38
2023-02-03T19:58:38.962Z,41.81
2023-02-03T20:01:05.773Z,41.84
2023-02-03T20:03:32.803Z,41.90
2023-02-03T20:06:00.993Z,42.08
2023-02-03T20:08:28.479Z,42.32
2023-02-03T20:10:55.650Z,42.25
2023-02-03T20:13:22.476Z,42.45
2023-02-03T20:15:49.426Z,42.69
2023-02-03T20:18:16.257Z,42.99
2023-02-03T20:20:43.009Z,42.75
2023-02-03T20:23:09.881Z,42.84
2023-02-03T20:25:36.647Z,42.90
2023-02-03T20:28:04.353Z,42.95
2023-02-03T20:30:31.479Z,43.29
2023-02-03T20:32:58.733Z,43.18
2023-02-03T20:35:26.422Z,43.20
2023-02-03T20:37:53.431Z,43.41
2023-02-03T20:40:22.933Z,43.83
2023-02-03T20:42:51.227Z,44.21
2023-02-03T20:45:20.571Z,44.44
2023-02-03T20:47:48.029Z,44.68
2023-02-03T20:50:23.608Z,44.62
2023-02-03T20:52:52.773Z,44.43
2023-02-03T20:55:22.097Z,44.62
2023-02-03T20:57:55.081Z,44.73
2023-02-03T21:00:24.928Z,44.24
2023-02-03T21:03:10.247Z,44.74
2023-02-03T21:05:39.536Z,44.73
2023-02-03T21:08:18.444Z,44.85
2023-02-03T21:10:46.709Z,45.20
2023-02-03T21:13:26.268Z,45.35
2023-02-03T21:16:03.977Z,45.73
2023-02-03T21:18:43.193Z,45.28
2023-02-03T21:21:24.988Z,45.99
2023-02-03T21:23:52.954Z,45.82
2023-02-03T21:26:23.960Z,45.90
2023-02-03T21:28:58.604Z,46.08
2023-02-03T21:31:30.612Z,46.16
2023-02-03T21:33:58.447Z,46.30
2023-02-03T21:36:34.162Z,46.79
2023-02-03T21:39:01.721Z,46.68
2023-02-03T21:41:33.488Z,46.87
2023-02-03T21:44:00.786Z,46.66
2023-02-03T21:46:31.768Z,46.97
2023-02-03T21:48:59.946Z,46.87
2023-02-03T21:51:32.140Z,46.71
2023-02-03T21:54:01.114Z,47.36
2023-02-03T21:56:35.721Z,47.35
2023-02-03T21:59:02.575Z,47.27
2023-02-03T22:01:36.318Z,47.55
2023-02-03T22:04:04.130Z,48.01
2023-02-03T22:06:49.289Z,48.15
2023-02-03T22:09:18.257Z,48.04
2023-02-03T22:11:45.450Z,48.49
2023-02-03T22:14:13.547Z,48.81
2023-02-03T22:16:40.554Z,49.17
2023-02-03T22:19:07.368Z,49.05
2023-02-03T22:21:34.543Z,49.06
2023-02-03T22:24:01.606Z,49.50
2023-02-03T22:26:28.545Z,49.43
2023-02-03T22:28:55.306Z,49.67
2023-02-03T22:31:22.585Z,49.41
2023-02-03T22:33:49.367Z,49.34
2023-02-03T22:36:16.197Z,49.53
2023-02-03T22:38:43.519Z,49.81
2023-02-03T22:41:14.131Z,50.27
2023-02-03T22:43:41.024Z,50.16
2023-02-03T22:46:08.623Z,50.27
2023-02-03T22:48:35.486Z,50.21
2023-02-03T22:51:03.292Z,50.19
2023-02-03T22:53:30.548Z,50.07
2023-02-03T22:55:57.455Z,50.20
2023-02-03T22:58:24.239Z,49.76
2023-02-03T23:00:50.980Z,49.64
2023-02-03T23:03:17.780Z,49.48
2023-02-03T23:05:44.760Z,49.18
2023-02-03T23:08:11.594Z,49.39
2023-02-03T23:10:38.310Z,49.50
2023-02-03T23:13:05.328Z,49.37
2023-02-03T23:15:32.140Z,49.40
2023-02-03T23:17:58.998Z,49.26
2023-02-03T23:20:25.847Z,49.10
2023-02-03T23:22:52.624Z,48.90
2023-02-03T23:25:19.361Z,48.93
2023-02-03T23:27:46.235Z,49.24
2023-02-03T23:30:14.170Z,49.30
2023-02-03T23:32:40.949Z,49.38
2023-02-03T23:35:27.049Z,49.53
2023-02-03T23:37:53.886Z,49.63
2023-02-03T23:40:20.973Z,49.65
2023-02-03T23:42:47.690Z,49.91
2023-02-03T23:45:14.460Z,49.97
2023-02-03T23:47:43.089Z,49.87
2023-02-03T23:50:12.406Z,49.79
2023-02-03T23:52:39.179Z,49.66
2023-02-03T23:55:07.916Z,49.69
2023-02-03T23:57:34.866Z,49.80
